Jyllinge, Denmark
Current Conditions -  °F | °C
As of 8:20 PM on Tuesday 21 Oct 2014 (Local Time) from EKRK Reporting Station
Light Rain Light Rain  
Wind Chill: 54°   Ceiling: 6000
Heat Index: 54°   Visibility: 4mi
Dew Point: 52°   Wind: 10mph
Humidity: 94%   Direction: 150°SSE
Pressure: 29.38"   Gusts: NA
Location:  55.76°N, 12.11°E
Report Text: EKRK 211820Z AUTO 15009KT 6000NDV -RA FEW007/// BKN060///12/11 Q0995
Loading
Personal Weather Stations






























Interactive Weather Map New forecast layout! Learn more

10-Day Weather Forecast

Advertisements
Track Severe Weather on mobile